sensor_id;sensor_type;location;lat;lon;timestamp;temperature;humidity
20315;DHT22;10315;50.958;13.080;2024-02-28T00:04:59;3.70;99.90
20315;DHT22;10315;50.958;13.080;2024-02-28T00:15:02;3.60;99.90
20315;DHT22;10315;50.958;13.080;2024-02-28T00:25:04;3.60;99.90
20315;DHT22;10315;50.958;13.080;2024-02-28T00:35:08;3.60;99.90
20315;DHT22;10315;50.958;13.080;2024-02-28T00:45:10;3.70;99.90
20315;DHT22;10315;50.958;13.080;2024-02-28T00:55:13;3.70;99.90
20315;DHT22;10315;50.958;13.080;2024-02-28T01:05:14;3.70;99.90
20315;DHT22;10315;50.958;13.080;2024-02-28T01:15:17;3.60;99.90
20315;DHT22;10315;50.958;13.080;2024-02-28T01:25:19;3.70;99.90
20315;DHT22;10315;50.958;13.080;2024-02-28T01:35:22;3.70;99.90
20315;DHT22;10315;50.958;13.080;2024-02-28T01:45:26;3.70;99.90
20315;DHT22;10315;50.958;13.080;2024-02-28T01:55:29;3.70;99.90
20315;DHT22;10315;50.958;13.080;2024-02-28T02:05:31;3.70;99.90
20315;DHT22;10315;50.958;13.080;2024-02-28T02:15:37;3.70;99.90
20315;DHT22;10315;50.958;13.080;2024-02-28T02:25:45;3.80;99.90
20315;DHT22;10315;50.958;13.080;2024-02-28T02:35:49;3.70;99.90
20315;DHT22;10315;50.958;13.080;2024-02-28T02:45:52;3.80;99.90
20315;DHT22;10315;50.958;13.080;2024-02-28T02:55:57;3.70;99.90
20315;DHT22;10315;50.958;13.080;2024-02-28T03:06:00;3.80;99.90
20315;DHT22;10315;50.958;13.080;2024-02-28T03:16:03;3.70;99.90
20315;DHT22;10315;50.958;13.080;2024-02-28T03:26:06;3.70;99.90
20315;DHT22;10315;50.958;13.080;2024-02-28T03:36:08;3.70;99.90
20315;DHT22;10315;50.958;13.080;2024-02-28T03:46:11;3.70;99.90
20315;DHT22;10315;50.958;13.080;2024-02-28T03:56:12;3.70;99.90
20315;DHT22;10315;50.958;13.080;2024-02-28T04:06:15;3.60;99.90
20315;DHT22;10315;50.958;13.080;2024-02-28T04:16:17;3.60;99.90
20315;DHT22;10315;50.958;13.080;2024-02-28T04:26:20;3.60;99.90
20315;DHT22;10315;50.958;13.080;2024-02-28T04:36:21;3.50;99.90
20315;DHT22;10315;50.958;13.080;2024-02-28T04:46:24;3.50;99.90
20315;DHT22;10315;50.958;13.080;2024-02-28T04:56:26;3.50;99.90
20315;DHT22;10315;50.958;13.080;2024-02-28T05:06:32;3.50;99.90
20315;DHT22;10315;50.958;13.080;2024-02-28T05:16:33;3.40;99.90
20315;DHT22;10315;50.958;13.080;2024-02-28T05:26:36;3.50;99.90
20315;DHT22;10315;50.958;13.080;2024-02-28T05:36:40;3.50;99.90
20315;DHT22;10315;50.958;13.080;2024-02-28T05:46:43;3.50;99.90
20315;DHT22;10315;50.958;13.080;2024-02-28T05:56:45;3.40;99.90
20315;DHT22;10315;50.958;13.080;2024-02-28T06:06:48;3.40;99.90
20315;DHT22;10315;50.958;13.080;2024-02-28T06:16:51;3.40;99.90
20315;DHT22;10315;50.958;13.080;2024-02-28T06:26:54;3.50;99.90
20315;DHT22;10315;50.958;13.080;2024-02-28T06:36:55;3.50;99.90
20315;DHT22;10315;50.958;13.080;2024-02-28T06:46:58;3.40;99.90
20315;DHT22;10315;50.958;13.080;2024-02-28T06:57:00;3.40;99.90
20315;DHT22;10315;50.958;13.080;2024-02-28T07:07:04;3.50;99.90
20315;DHT22;10315;50.958;13.080;2024-02-28T07:17:06;3.50;99.90
20315;DHT22;10315;50.958;13.080;2024-02-28T07:27:09;3.60;99.90
20315;DHT22;10315;50.958;13.080;2024-02-28T07:37:11;3.50;99.90
20315;DHT22;10315;50.958;13.080;2024-02-28T07:47:14;3.50;99.90
20315;DHT22;10315;50.958;13.080;2024-02-28T07:57:16;3.40;99.90
20315;DHT22;10315;50.958;13.080;2024-02-28T08:07:18;3.40;99.90
20315;DHT22;10315;50.958;13.080;2024-02-28T08:17:20;3.40;99.90
20315;DHT22;10315;50.958;13.080;2024-02-28T08:27:23;3.40;99.90
20315;DHT22;10315;50.958;13.080;2024-02-28T08:37:25;3.30;99.90
20315;DHT22;10315;50.958;13.080;2024-02-28T08:47:29;3.30;99.90
20315;DHT22;10315;50.958;13.080;2024-02-28T08:57:31;3.50;99.90
20315;DHT22;10315;50.958;13.080;2024-02-28T09:07:34;3.50;99.90
20315;DHT22;10315;50.958;13.080;2024-02-28T09:17:36;3.30;99.90
20315;DHT22;10315;50.958;13.080;2024-02-28T09:27:38;3.40;99.90
20315;DHT22;10315;50.958;13.080;2024-02-28T09:37:40;3.30;99.90
20315;DHT22;10315;50.958;13.080;2024-02-28T09:47:43;3.30;99.90
20315;DHT22;10315;50.958;13.080;2024-02-28T09:57:47;3.40;99.90
20315;DHT22;10315;50.958;13.080;2024-02-28T10:07:51;3.50;99.90
20315;DHT22;10315;50.958;13.080;2024-02-28T10:17:53;3.90;99.90
20315;DHT22;10315;50.958;13.080;2024-02-28T10:28:00;3.70;99.90
20315;DHT22;10315;50.958;13.080;2024-02-28T10:38:02;3.90;99.90
20315;DHT22;10315;50.958;13.080;2024-02-28T10:48:06;3.90;99.90
20315;DHT22;10315;50.958;13.080;2024-02-28T10:58:09;4.20;99.90
20315;DHT22;10315;50.958;13.080;2024-02-28T11:08:21;4.40;99.90
20315;DHT22;10315;50.958;13.080;2024-02-28T11:18:23;4.70;99.90
20315;DHT22;10315;50.958;13.080;2024-02-28T11:28:26;5.20;99.90
20315;DHT22;10315;50.958;13.080;2024-02-28T11:38:29;5.00;99.90
20315;DHT22;10315;50.958;13.080;2024-02-28T11:48:31;4.90;99.90
20315;DHT22;10315;50.958;13.080;2024-02-28T11:58:33;5.40;99.90
20315;DHT22;10315;50.958;13.080;2024-02-28T12:08:36;5.80;99.90
20315;DHT22;10315;50.958;13.080;2024-02-28T12:18:38;5.50;99.90
20315;DHT22;10315;50.958;13.080;2024-02-28T12:28:41;5.50;99.90
20315;DHT22;10315;50.958;13.080;2024-02-28T12:38:42;5.60;99.90
20315;DHT22;10315;50.958;13.080;2024-02-28T12:48:45;5.60;99.90
20315;DHT22;10315;50.958;13.080;2024-02-28T12:58:47;6.20;99.90
20315;DHT22;10315;50.958;13.080;2024-02-28T13:08:51;7.00;99.90
20315;DHT22;10315;50.958;13.080;2024-02-28T13:18:52;7.30;99.90
20315;DHT22;10315;50.958;13.080;2024-02-28T13:28:55;7.60;99.90
20315;DHT22;10315;50.958;13.080;2024-02-28T13:38:57;7.90;99.90
20315;DHT22;10315;50.958;13.080;2024-02-28T13:49:00;7.80;99.90
20315;DHT22;10315;50.958;13.080;2024-02-28T13:59:02;8.00;99.90
20315;DHT22;10315;50.958;13.080;2024-02-28T14:09:04;8.00;99.90
20315;DHT22;10315;50.958;13.080;2024-02-28T14:19:06;7.80;99.90
20315;DHT22;10315;50.958;13.080;2024-02-28T14:29:09;7.70;99.90
20315;DHT22;10315;50.958;13.080;2024-02-28T14:39:11;8.10;99.90
20315;DHT22;10315;50.958;13.080;2024-02-28T14:49:19;8.00;99.90
20315;DHT22;10315;50.958;13.080;2024-02-28T14:59:21;7.90;99.90
20315;DHT22;10315;50.958;13.080;2024-02-28T15:09:25;7.40;99.90
20315;DHT22;10315;50.958;13.080;2024-02-28T15:19:26;7.30;99.90
20315;DHT22;10315;50.958;13.080;2024-02-28T15:29:29;7.50;99.90
20315;DHT22;10315;50.958;13.080;2024-02-28T15:39:31;7.30;99.90
20315;DHT22;10315;50.958;13.080;2024-02-28T15:49:34;7.10;99.90
20315;DHT22;10315;50.958;13.080;2024-02-28T15:59:39;7.00;99.90
20315;DHT22;10315;50.958;13.080;2024-02-28T16:09:41;6.60;99.90
20315;DHT22;10315;50.958;13.080;2024-02-28T16:19:45;6.10;99.90
20315;DHT22;10315;50.958;13.080;2024-02-28T16:29:49;5.60;99.90
20315;DHT22;10315;50.958;13.080;2024-02-28T16:39:51;4.80;99.90
20315;DHT22;10315;50.958;13.080;2024-02-28T16:49:54;4.00;99.90
20315;DHT22;10315;50.958;13.080;2024-02-28T16:59:55;3.60;99.90
20315;DHT22;10315;50.958;13.080;2024-02-28T17:09:58;3.00;99.90
20315;DHT22;10315;50.958;13.080;2024-02-28T17:20:00;2.90;99.90
20315;DHT22;10315;50.958;13.080;2024-02-28T17:30:05;3.30;99.90
20315;DHT22;10315;50.958;13.080;2024-02-28T17:40:09;3.00;99.90
20315;DHT22;10315;50.958;13.080;2024-02-28T17:50:13;2.70;99.90
20315;DHT22;10315;50.958;13.080;2024-02-28T18:00:16;2.60;99.90
20315;DHT22;10315;50.958;13.080;2024-02-28T18:10:23;2.60;99.90
20315;DHT22;10315;50.958;13.080;2024-02-28T18:20:25;2.10;99.90
20315;DHT22;10315;50.958;13.080;2024-02-28T18:30:28;2.40;99.90
20315;DHT22;10315;50.958;13.080;2024-02-28T18:40:29;2.40;99.90
20315;DHT22;10315;50.958;13.080;2024-02-28T18:50:32;2.30;99.90
20315;DHT22;10315;50.958;13.080;2024-02-28T19:00:34;2.10;99.90
20315;DHT22;10315;50.958;13.080;2024-02-28T19:10:37;2.10;99.90
20315;DHT22;10315;50.958;13.080;2024-02-28T19:20:39;1.80;99.90
20315;DHT22;10315;50.958;13.080;2024-02-28T19:30:42;1.70;99.90
20315;DHT22;10315;50.958;13.080;2024-02-28T19:40:44;1.60;99.90
20315;DHT22;10315;50.958;13.080;2024-02-28T19:50:47;1.40;99.90
20315;DHT22;10315;50.958;13.080;2024-02-28T20:00:49;1.50;99.90
20315;DHT22;10315;50.958;13.080;2024-02-28T20:10:52;1.40;99.90
20315;DHT22;10315;50.958;13.080;2024-02-28T20:20:56;1.10;99.90
20315;DHT22;10315;50.958;13.080;2024-02-28T20:31:01;1.10;99.90
20315;DHT22;10315;50.958;13.080;2024-02-28T20:41:03;0.80;99.90
20315;DHT22;10315;50.958;13.080;2024-02-28T20:51:06;0.80;99.90
20315;DHT22;10315;50.958;13.080;2024-02-28T21:01:08;0.70;99.90
20315;DHT22;10315;50.958;13.080;2024-02-28T21:11:11;0.50;99.90
20315;DHT22;10315;50.958;13.080;2024-02-28T21:21:12;0.50;99.90
20315;DHT22;10315;50.958;13.080;2024-02-28T21:31:15;0.50;99.90
20315;DHT22;10315;50.958;13.080;2024-02-28T21:41:19;0.40;99.90
20315;DHT22;10315;50.958;13.080;2024-02-28T21:51:22;0.50;99.90
20315;DHT22;10315;50.958;13.080;2024-02-28T22:01:27;0.30;99.90
20315;DHT22;10315;50.958;13.080;2024-02-28T22:11:30;0.40;99.90
20315;DHT22;10315;50.958;13.080;2024-02-28T22:21:34;0.40;99.90
20315;DHT22;10315;50.958;13.080;2024-02-28T22:31:37;0.10;99.90
20315;DHT22;10315;50.958;13.080;2024-02-28T22:41:38;0.20;99.90
20315;DHT22;10315;50.958;13.080;2024-02-28T22:51:41;0.10;99.90
20315;DHT22;10315;50.958;13.080;2024-02-28T23:01:44;0.00;99.90
20315;DHT22;10315;50.958;13.080;2024-02-28T23:11:47;-0.10;99.90
20315;DHT22;10315;50.958;13.080;2024-02-28T23:21:49;0.00;99.90
20315;DHT22;10315;50.958;13.080;2024-02-28T23:31:52;0.00;99.90
20315;DHT22;10315;50.958;13.080;2024-02-28T23:41:54;-0.20;99.90
20315;DHT22;10315;50.958;13.080;2024-02-28T23:51:57;-0.10;99.90
